• Join FlightAware (Why Join?)
  • Login
  • US Flag 
06:59AM EDT


 

Airport Tracker/Info


-or-


 

Live Flight TrackerFlight Track Log ✈ SWA1031 ✈ 26-Apr-2013 ✈ KONT - KMDW

Flight Track Log - Related Links

Times and Time Zones

All times are in EDT time to prevent confusion due to time zone crossing. See the SWA1031 flight status page for this flight to view local times or setup timezone preferences in your user account.

Time Position Orientation Groundspeed Altitude Reporting Facility
EDT Latitude Longitude Course Direction KTS MPH feet Rate Location/Type
04:56PM 34.0628 -117.7131 274° West 204 235 5,100  Level Los Angeles Center
04:57PM 34.0925 -117.7914 295° West 240 276 7,700 2,820 Climbing Los Angeles Center
04:58PM 34.1353 -117.8533 310° West 249 287 11,000 2,520 Climbing Los Angeles Center
04:59PM 34.1892 -117.9142 317° Northwest 266 306 13,000 2,400 Climbing Los Angeles Center
05:01PM 34.3517 -117.8965 59° Northeast  Level FlightAware Approximate
05:01PM 34.2550 -117.9886 317° Northwest 307 353 16,100  Level Los Angeles Center
05:02PM 34.3369 -117.9975 355° North 309 356 19,300 2,100 Climbing Los Angeles Center
05:03PM 34.4267 -117.9425 27° Northeast 342 394 20,500 960 Climbing Los Angeles Center
05:04PM 34.4756 -117.8186 64° Northeast 415 478 21,400 1,260 Climbing Los Angeles Center
05:05PM 34.5289 -117.6872 64° Northeast 436 502 23,200 1,740 Climbing Los Angeles Center
05:06PM 34.5931 -117.5222 65° Northeast 453 521 25,100 1,860 Climbing Los Angeles Center
05:07PM 34.6486 -117.3808 64° Northeast 465 535 27,100 1,740 Climbing Los Angeles Center
05:08PM 34.7047 -117.2400 64° Northeast 467 537 28,800 1,620 Climbing Los Angeles Center
05:09PM 34.7767 -117.1117 56° Northeast 458 527 30,500 1,620 Climbing Los Angeles Center
05:10PM 34.8750 -116.9675 50° Northeast 463 533 32,200 1,500 Climbing Los Angeles Center
05:11PM 34.9561 -116.8456 51° Northeast 465 535 33,700 1,680 Climbing Los Angeles Center
05:12PM 35.0381 -116.7267 50° Northeast 464 534 35,700 1,440 Climbing Los Angeles Center
05:13PM 35.1186 -116.6094 50° Northeast 459 528 36,800 600 Climbing Los Angeles Center
05:14PM 35.1986 -116.4908 50° Northeast 456 525 37,000 60 Climbing Los Angeles Center
05:15PM 35.2936 -116.3453 51° Northeast 458 527 37,000  Level Los Angeles Center
05:16PM 35.3761 -116.2261 50° Northeast 460 529 37,000  Level Los Angeles Center
05:17PM 35.4564 -116.1044 51° Northeast 460 529 37,000  Level Los Angeles Center
05:18PM 35.5367 -115.9833 51° Northeast 459 528 37,000  Level Los Angeles Center
05:19PM 35.6244 -115.8561 50° Northeast 457 526 37,000  Level Los Angeles Center
05:20PM 35.7042 -115.7394 50° Northeast 448 516 37,000  Level Los Angeles Center
05:21PM 35.7833 -115.6167 51° Northeast 454 522 37,000  Level Los Angeles Center
05:22PM 35.8789 -115.4692 51° Northeast 460 529 37,000  Level Los Angeles Center
05:23PM 35.9597 -115.3469 51° Northeast 463 533 37,000  Level Los Angeles Center
05:24PM 36.0394 -115.2253 51° Northeast 461 531 37,000  Level Los Angeles Center
05:25PM 36.1050 -115.0878 59° Northeast 468 539 37,000  Level Los Angeles Center
05:26PM 36.1594 -114.9067 70° East 471 542 37,000  Level Los Angeles Center
05:27PM 36.2056 -114.7558 69° East 471 542 37,000  Level Los Angeles Center
05:28PM 36.2414 -114.6344 70° East 472 543 37,000  Level Los Angeles Center
05:30PM 36.2975 -114.4522 69° East 472 543 37,000  Level Los Angeles Center
05:31PM 36.3422 -114.2994 70° East 473 544 37,000  Level Los Angeles Center
05:32PM 36.3889 -114.1486 69° East 470 541 37,000  Level Los Angeles Center
05:33PM 36.4414 -113.9697 70° East 463 533 37,000  Level Los Angeles Center
05:34PM 36.4872 -113.8197 69° East 464 534 37,000  Level Los Angeles Center
05:35PM 36.5269 -113.6828 70° East 463 533 37,000  Level Los Angeles Center
05:36PM 36.5797 -113.5028 70° East 463 533 37,000  Level Los Angeles Center
05:37PM 36.6244 -113.3528 70° East 464 534 37,000  Level Los Angeles Center
05:38PM 36.6681 -113.2022 70° East 465 535 37,000  Level Los Angeles Center
05:39PM 36.7111 -113.0517 70° East 465 535 37,000  Level Los Angeles Center
05:40PM 36.7553 -112.8994 70° East 468 539 37,000  Level Los Angeles Center
05:41PM 36.8069 -112.7156 71° East 472 543 37,000  Level Los Angeles Center
05:42PM 36.8511 -112.5631 70° East 471 542 37,000  Level Los Angeles Center
05:43PM 36.8939 -112.4094 71° East 472 543 37,000  Level Los Angeles Center
05:44PM 36.9375 -112.2556 70° East 472 543 37,000  Level Los Angeles Center
05:45PM 36.9808 -112.1019 71° East 472 543 37,000  Level Los Angeles Center
05:46PM 37.0244 -111.9475 70° East 473 544 37,000  Level Denver Center
05:47PM 37.0744 -111.7628 71° East 470 541 37,000  Level Denver Center
05:48PM 37.1161 -111.6089 71° East 469 540 37,000 300 Level Denver Center
05:49PM 37.1494 -111.4867 71° East 467 537 37,700 960 Climbing Denver Center
05:50PM 37.1978 -111.3036 72° East 463 533 39,000 600 Climbing Denver Center
05:51PM 37.2392 -111.1519 71° East 462 532 39,000  Level Denver Center
05:52PM 37.2878 -110.9678 72° East 466 536 39,000  Level Denver Center
05:54PM 37.3358 -110.7839 72° East 462 532 39,000  Level Denver Center
05:55PM 37.3778 -110.6306 71° East 464 534 39,000  Level Denver Center
05:56PM 37.4181 -110.4769 72° East 464 534 39,000  Level Denver Center
05:57PM 37.4575 -110.3239 72° East 462 532 39,000  Level Denver Center
05:58PM 37.5033 -110.1439 72° East 469 540 39,000  Level Denver Center
05:59PM 37.5422 -109.9939 72° East 471 542 39,000  Level Denver Center
06:00PM 37.5869 -109.8194 72° East 468 539 39,000  Level Denver Center
06:01PM 37.6264 -109.6667 72° East 475 547 39,000  Level Denver Center
06:02PM 37.6703 -109.4878 73° East 476 548 39,000  Level Denver Center
06:03PM 37.7089 -109.3347 72° East 477 549 39,000  Level Denver Center
06:04PM 37.7475 -109.1817 72° East 478 550 39,000  Level Denver Center
06:05PM 37.7919 -109.0025 73° East 479 551 39,000  Level Denver Center
06:06PM 37.8525 -108.8061 69° East 472 543 39,000  Level Denver Center
06:07PM 37.9114 -108.6369 66° East 470 541 39,000  Level Denver Center
06:08PM 37.9694 -108.4706 66° East 464 534 39,000  Level Denver Center
06:09PM 38.0192 -108.3275 66° East 464 534 39,000  Level Denver Center
06:10PM 38.0742 -108.1658 67° East 471 542 39,000  Level Denver Center
06:11PM 38.1317 -107.9972 67° East 470 541 39,000  Level Denver Center
06:13PM 38.1819 -107.8517 66° East 470 541 39,000  Level Denver Center
06:14PM 38.2222 -107.7317 67° East 466 536 39,000  Level Denver Center
06:15PM 38.2881 -107.5350 67° East 472 543 39,000  Level Denver Center
06:16PM 38.3453 -107.3619 67° East 475 547 39,000  Level Denver Center
06:17PM 38.3956 -107.2142 66° East 476 548 39,000  Level Denver Center
06:18PM 38.4431 -107.0694 67° East 473 544 39,000  Level Denver Center
06:19PM 38.4853 -106.8747 74° East 474 545 39,000  Level Denver Center
06:20PM 38.5178 -106.7108 76° East 478 550 39,000  Level Denver Center
06:21PM 38.5497 -106.5478 76° East 474 545 39,000  Level Denver Center
06:22PM 38.5817 -106.3844 76° East 475 547 39,000  Level Denver Center
06:23PM 38.6133 -106.2219 76° East 473 544 39,000  Level Denver Center
06:24PM 38.6561 -105.9961 76° East 472 543 39,000  Level Denver Center
06:25PM 38.6875 -105.8306 76° East 474 545 39,000  Level Denver Center
06:26PM 38.7233 -105.6381 77° East 476 548 39,000  Level Denver Center
06:27PM 38.7539 -105.4722 77° East 476 548 39,000  Level Denver Center
06:28PM 38.7894 -105.2775 77° East 478 550 39,000  Level Denver Center
06:29PM 38.8203 -105.1114 77° East 476 548 39,000  Level Denver Center
06:31PM 38.8497 -104.9436 77° East 480 552 39,000  Level Denver Center
06:32PM 38.8858 -104.7489 77° East 480 552 39,000  Level Denver Center
06:33PM 38.9156 -104.5831 77° East 476 548 39,000  Level Denver Center
06:34PM 38.9503 -104.3883 77° East 478 550 39,000  Level Denver Center
06:35PM 38.9783 -104.2208 78° East 478 550 39,000  Level Denver Center
06:36PM 39.0072 -104.0531 77° East 479 551 39,000  Level Denver Center
06:37PM 39.0369 -103.8853 77° East 480 552 39,000  Level Denver Center
06:38PM 39.0644 -103.7153 78° East 482 555 39,000  Level Denver Center
06:39PM 39.0936 -103.5472 77° East 479 551 39,000  Level Denver Center
06:40PM 39.1267 -103.3500 78° East 480 552 39,000  Level Denver Center
06:41PM 39.1550 -103.1814 78° East 479 551 39,000  Level Denver Center
06:42PM 39.1817 -103.0136 78° East 476 548 39,000  Level Denver Center
06:43PM 39.2094 -102.8456 78° East 476 548 39,000  Level Denver Center
06:44PM 39.2325 -102.6828 80° East 476 548 39,000  Level Denver Center
06:45PM 39.2672 -102.4719 78° East 471 542 39,000  Level Denver Center
06:46PM 39.2964 -102.2858 78° East 473 544 39,000  Level Denver Center
06:47PM 39.3206 -102.1247 79° East 475 547 39,000  Level Denver Center
06:49PM 39.3517 -101.9400 78° East 475 547 39,000  Level Denver Center
06:50PM 39.3714 -101.8053 79° East 478 550 39,000  Level Denver Center
06:51PM 39.3956 -101.6419 79° East 483 556 39,000  Level Denver Center
06:52PM 39.4339 -101.4286 77° East 481 554 39,000  Level Denver Center
06:53PM 39.4658 -101.2394 78° East 483 556 39,000  Level Denver Center
06:54PM 39.4928 -101.0744 78° East 489 563 39,000  Level Denver Center
06:55PM 39.5214 -100.9106 77° East 491 565 39,000  Level Denver Center
06:56PM 39.5486 -100.7428 78° East 496 571 39,000  Level Denver Center
06:57PM 39.5808 -100.5469 78° East 499 574 39,000  Level Denver Center
06:58PM 39.6119 -100.3500 78° East 499 574 39,000  Level Denver Center
06:59PM 39.6400 -100.1817 78° East 501 577 39,000  Level Denver Center
07:00PM 39.6703 -99.9861 79° East 498 573 39,000  Level Denver Center
07:01PM 39.6956 -99.8275 78° East 495 570 39,000  Level Denver Center
07:02PM 39.7225 -99.6517 79° East 498 573 39,000  Level Denver Center
07:03PM 39.7556 -99.4397 78° East 499 574 39,000  Level Denver Center
07:04PM 39.7822 -99.2631 79° East 499 574 39,000  Level Denver Center
07:05PM 39.8083 -99.0853 79° East 501 577 39,000  Level Denver Center
07:06PM 39.8344 -98.9089 79° East 499 574 39,000  Level Denver Center
07:07PM 39.8603 -98.7333 79° East 497 572 39,000  Level Denver Center
07:08PM 39.8858 -98.5586 79° East 497 572 39,000  Level Minneapolis Center
07:09PM 39.9108 -98.3842 79° East 494 568 39,000  Level Minneapolis Center
07:10PM 39.9356 -98.2114 79° East 490 564 39,000  Level Minneapolis Center
07:11PM 39.9650 -98.0033 79° East 489 563 39,000  Level Minneapolis Center
07:12PM 39.9886 -97.8311 80° East 485 558 39,000  Level Minneapolis Center
07:13PM 40.0114 -97.6600 80° East 483 556 39,000  Level Minneapolis Center
07:14PM 40.0344 -97.4881 80° East 482 555 39,000  Level Minneapolis Center
07:15PM 40.0578 -97.3158 80° East 482 555 39,000  Level Minneapolis Center
07:16PM 40.0844 -97.1144 80° East 481 554 39,000  Level Minneapolis Center
07:17PM 40.1075 -96.9414 80° East 483 556 39,000  Level Minneapolis Center
07:18PM 40.1300 -96.7686 80° East 485 558 39,000  Level Minneapolis Center
07:19PM 40.1514 -96.5958 81° East 484 557 39,000  Level Minneapolis Center
07:20PM 40.1728 -96.4217 81° East 485 558 39,000  Level Minneapolis Center
07:21PM 40.1944 -96.2494 81° East 485 558 39,000  Level Minneapolis Center
07:23PM 40.2297 -96.0450 77° East 482 555 39,000  Level Minneapolis Center
07:24PM 40.2614 -95.8717 76° East 488 562 39,000  Level Minneapolis Center
07:25PM 40.2875 -95.7356 76° East 488 562 39,000  Level Minneapolis Center
07:26PM 40.3244 -95.5333 76° East 481 554 39,000  Level Minneapolis Center
07:27PM 40.3553 -95.3628 77° East 482 555 39,000  Level Minneapolis Center
07:28PM 40.3919 -95.1564 77° East 486 559 39,000  Level Minneapolis Center
07:29PM 40.4231 -94.9822 77° East 489 563 39,000  Level Minneapolis Center
07:30PM 40.4597 -94.7747 77° East 489 563 39,000  Level Minneapolis Center
07:31PM 40.4978 -94.5553 77° East 492 566 39,000  Level Minneapolis Center
07:32PM 40.5286 -94.3800 77° East 493 567 39,000  Level Minneapolis Center
07:33PM 40.5578 -94.2053 78° East 493 567 39,000  Level Minneapolis Center
07:34PM 40.5861 -94.0289 78° East 496 571 39,000  Level Minneapolis Center
07:35PM 40.6186 -93.8189 78° East 494 568 39,000  Level Minneapolis Center
07:36PM 40.6442 -93.6411 79° East 496 571 39,000  Level Minneapolis Center
07:37PM 40.6694 -93.4636 79° East 495 570 39,000 -60 Level Minneapolis Center
07:38PM 40.6961 -93.2856 79° East 497 572 38,900 -660 Descending Minneapolis Center
07:41PM 40.7478 -92.9236 79° East 503 579 37,000 -660 Descending Minneapolis Center
07:42PM 40.7764 -92.7056 80° East 502 578 37,000  Level Chicago Center
07:43PM 40.8014 -92.5222 80° East 506 582 37,000  Level Chicago Center
07:44PM 40.8267 -92.3417 79° East 502 578 37,000  Level Chicago Center
07:45PM 40.8511 -92.1589 80° East 505 581 37,000 -1,200 Level Chicago Center
07:46PM 40.8747 -91.9764 80° East 506 582 34,600 -2,760 Descending Chicago Center
07:47PM 40.8989 -91.7931 80° East 508 585 31,400 -1,800 Descending Chicago Center
07:48PM 40.9267 -91.5697 81° East 514 592 31,000 -240 Descending Chicago Center
07:49PM 40.9506 -91.3817 80° East 522 601 31,000  Level Chicago Center
07:50PM 40.9739 -91.1839 81° East 524 603 31,000 -1,320 Level Chicago Center
07:51PM 40.9981 -90.9950 80° East 519 597 28,300 -2,640 Descending Chicago Center
07:52PM 41.0197 -90.8072 81° East 517 595 25,600 -2,100 Descending Chicago Center
07:53PM 41.0428 -90.6300 80° East 491 565 24,000 -780 Descending Chicago Center
07:54PM 41.0625 -90.4578 81° East 472 543 24,000  Level Chicago Center
07:55PM 41.0836 -90.2808 81° East 481 554 24,000 -480 Level Chicago Center
07:56PM 41.1064 -90.0756 82° East 463 533 23,100 -1,380 Descending Chicago Center
07:57PM 41.1233 -89.9214 82° East 424 488 21,200 -1,860 Descending Chicago Center
07:58PM 41.1406 -89.7728 81° East 406 467 19,300 -1,680 Descending Chicago Center
07:59PM 41.1642 -89.6342 77° East 385 443 17,700 -1,740 Descending Chicago Center
08:00PM 41.2036 -89.5072 68° East 373 429 15,700 -1,500 Descending Chicago Center
08:01PM 41.2389 -89.3836 69° East 361 415 14,700 -1,080 Descending Chicago Center
08:02PM 41.2822 -89.2397 68° East 351 404 13,500 -1,020 Descending Chicago Center
08:03PM 41.3114 -89.1364 69° East 347 399 12,700 -1,020 Descending Chicago Center
08:04PM 41.3514 -88.9978 69° East 338 389 11,500 -1,260 Descending Chicago Center
08:05PM 41.3833 -88.8861 69° East 327 376 10,100 -1,200 Descending Chicago Center
08:06PM 41.4144 -88.7789 69° East 312 359 9,100 -1,320 Descending Chicago Center
08:07PM 41.4447 -88.6781 68° East 298 343 7,400 -1,380 Descending Chicago Center
08:08PM 41.4739 -88.5758 69° East 297 342 6,300 -720 Descending Chicago Center
08:10PM 41.5106 -88.4606 67° East 286 329 6,000 -660 Descending Chicago Center
08:11PM 41.5506 -88.3694 60° Northeast 291 335 5,000 -540 Descending Chicago Center
08:12PM 41.5589 -88.2706 84° East 277 319 5,000  Level Chicago Center
08:13PM 41.5664 -88.1694 84° East 274 315 5,000  Level Chicago Center
08:14PM 41.5747 -88.0675 84° East 274 315 5,000 -240 Level Chicago Center
08:15PM 41.5819 -87.9647 85° East 274 315 4,600 -600 Descending Chicago Center
08:16PM 41.6047 -87.8683 72° East 277 319 3,800 -780 Descending Chicago Center
08:17PM 41.6575 -87.7800 51° Northeast 262 302 3,000 -660 Descending Chicago Center
08:18PM 41.7108 -87.7258 37° Northeast 263 303 2,500 -300 Descending Chicago Center
08:19PM 41.7667 -87.7000 19° North 227 261 2,500 -540 Level Chicago TRACON
08:20PM 41.8167 -87.7000 360° North 159 183 1,500 -900 Descending Chicago TRACON
08:21PM 41.8000 -87.7333 236° Southwest 128 147 900 -600 Descending Chicago TRACON